sensor_id;sensor_type;location;lat;lon;timestamp;temperature;humidity
45044;DHT22;30784;48.490;9.688;2023-07-09T00:01:17;25.30;40.70
45044;DHT22;30784;48.490;9.688;2023-07-09T00:03:47;25.20;40.40
45044;DHT22;30784;48.490;9.688;2023-07-09T00:06:19;25.30;40.80
45044;DHT22;30784;48.490;9.688;2023-07-09T00:08:46;25.30;40.80
45044;DHT22;30784;48.490;9.688;2023-07-09T00:11:14;25.20;40.80
45044;DHT22;30784;48.490;9.688;2023-07-09T00:13:39;25.30;40.90
45044;DHT22;30784;48.490;9.688;2023-07-09T00:16:12;25.20;40.90
45044;DHT22;30784;48.490;9.688;2023-07-09T00:18:38;25.20;40.70
45044;DHT22;30784;48.490;9.688;2023-07-09T00:21:04;25.20;40.90
45044;DHT22;30784;48.490;9.688;2023-07-09T00:23:29;25.20;40.90
45044;DHT22;30784;48.490;9.688;2023-07-09T00:25:55;25.20;41.00
45044;DHT22;30784;48.490;9.688;2023-07-09T00:28:20;25.20;41.00
45044;DHT22;30784;48.490;9.688;2023-07-09T00:30:47;25.20;41.10
45044;DHT22;30784;48.490;9.688;2023-07-09T00:33:15;25.20;41.10
45044;DHT22;30784;48.490;9.688;2023-07-09T00:35:44;25.10;41.10
45044;DHT22;30784;48.490;9.688;2023-07-09T00:38:19;25.10;41.10
45044;DHT22;30784;48.490;9.688;2023-07-09T00:40:53;25.10;41.00
45044;DHT22;30784;48.490;9.688;2023-07-09T00:43:22;25.00;41.10
45044;DHT22;30784;48.490;9.688;2023-07-09T00:48:43;25.00;40.70
45044;DHT22;30784;48.490;9.688;2023-07-09T00:51:13;25.00;41.20
45044;DHT22;30784;48.490;9.688;2023-07-09T00:53:39;25.00;41.30
45044;DHT22;30784;48.490;9.688;2023-07-09T00:56:13;24.90;41.30
45044;DHT22;30784;48.490;9.688;2023-07-09T00:58:40;24.90;41.40
45044;DHT22;30784;48.490;9.688;2023-07-09T01:01:10;24.90;41.50
45044;DHT22;30784;48.490;9.688;2023-07-09T01:03:53;24.80;41.60
45044;DHT22;30784;48.490;9.688;2023-07-09T01:06:35;24.80;41.40
45044;DHT22;30784;48.490;9.688;2023-07-09T01:09:03;24.70;41.60
45044;DHT22;30784;48.490;9.688;2023-07-09T01:11:29;24.70;41.80
45044;DHT22;30784;48.490;9.688;2023-07-09T01:13:57;24.70;41.80
45044;DHT22;30784;48.490;9.688;2023-07-09T01:16:28;24.60;41.80
45044;DHT22;30784;48.490;9.688;2023-07-09T01:18:54;24.60;41.90
45044;DHT22;30784;48.490;9.688;2023-07-09T01:21:20;24.60;41.90
45044;DHT22;30784;48.490;9.688;2023-07-09T01:23:47;24.60;42.00
45044;DHT22;30784;48.490;9.688;2023-07-09T01:26:19;24.60;42.00
45044;DHT22;30784;48.490;9.688;2023-07-09T01:28:45;24.60;42.00
45044;DHT22;30784;48.490;9.688;2023-07-09T01:31:12;24.60;42.10
45044;DHT22;30784;48.490;9.688;2023-07-09T01:33:39;24.50;42.10
45044;DHT22;30784;48.490;9.688;2023-07-09T01:36:06;24.50;42.10
45044;DHT22;30784;48.490;9.688;2023-07-09T01:38:33;24.50;42.10
45044;DHT22;30784;48.490;9.688;2023-07-09T01:40:59;24.50;42.10
45044;DHT22;30784;48.490;9.688;2023-07-09T01:43:25;24.50;42.20
45044;DHT22;30784;48.490;9.688;2023-07-09T01:45:51;24.40;42.30
45044;DHT22;30784;48.490;9.688;2023-07-09T01:48:18;24.40;42.20
45044;DHT22;30784;48.490;9.688;2023-07-09T01:50:46;24.50;42.30
45044;DHT22;30784;48.490;9.688;2023-07-09T01:53:16;24.40;42.40
45044;DHT22;30784;48.490;9.688;2023-07-09T01:55:43;24.30;42.40
45044;DHT22;30784;48.490;9.688;2023-07-09T01:58:08;24.30;42.40
45044;DHT22;30784;48.490;9.688;2023-07-09T02:00:34;24.30;42.40
45044;DHT22;30784;48.490;9.688;2023-07-09T02:03:00;24.30;42.40
45044;DHT22;30784;48.490;9.688;2023-07-09T02:05:29;24.20;42.50
45044;DHT22;30784;48.490;9.688;2023-07-09T02:07:55;24.20;42.50
45044;DHT22;30784;48.490;9.688;2023-07-09T02:10:21;24.20;42.50
45044;DHT22;30784;48.490;9.688;2023-07-09T02:12:46;24.30;42.70
45044;DHT22;30784;48.490;9.688;2023-07-09T02:15:12;24.20;42.70
45044;DHT22;30784;48.490;9.688;2023-07-09T02:17:38;24.20;42.70
45044;DHT22;30784;48.490;9.688;2023-07-09T02:20:05;24.10;42.70
45044;DHT22;30784;48.490;9.688;2023-07-09T02:22:36;24.10;42.80
45044;DHT22;30784;48.490;9.688;2023-07-09T02:25:03;24.10;42.80
45044;DHT22;30784;48.490;9.688;2023-07-09T02:27:28;24.10;42.90
45044;DHT22;30784;48.490;9.688;2023-07-09T02:29:54;24.00;42.80
45044;DHT22;30784;48.490;9.688;2023-07-09T02:32:25;24.00;42.90
45044;DHT22;30784;48.490;9.688;2023-07-09T02:34:52;24.00;42.90
45044;DHT22;30784;48.490;9.688;2023-07-09T02:37:23;23.90;43.00
45044;DHT22;30784;48.490;9.688;2023-07-09T02:39:49;24.00;43.10
45044;DHT22;30784;48.490;9.688;2023-07-09T02:42:17;23.90;43.10
45044;DHT22;30784;48.490;9.688;2023-07-09T02:44:44;23.90;43.20
45044;DHT22;30784;48.490;9.688;2023-07-09T02:47:10;23.90;43.20
45044;DHT22;30784;48.490;9.688;2023-07-09T02:49:36;23.90;43.30
45044;DHT22;30784;48.490;9.688;2023-07-09T02:52:02;23.80;43.40
45044;DHT22;30784;48.490;9.688;2023-07-09T02:54:28;23.80;43.40
45044;DHT22;30784;48.490;9.688;2023-07-09T02:56:54;23.90;43.40
45044;DHT22;30784;48.490;9.688;2023-07-09T02:59:19;23.80;43.60
45044;DHT22;30784;48.490;9.688;2023-07-09T03:01:45;23.80;43.40
45044;DHT22;30784;48.490;9.688;2023-07-09T03:04:12;23.70;43.40
45044;DHT22;30784;48.490;9.688;2023-07-09T03:06:37;23.70;43.50
45044;DHT22;30784;48.490;9.688;2023-07-09T03:09:04;23.70;43.50
45044;DHT22;30784;48.490;9.688;2023-07-09T03:11:31;23.70;44.10
45044;DHT22;30784;48.490;9.688;2023-07-09T03:13:58;23.70;43.70
45044;DHT22;30784;48.490;9.688;2023-07-09T03:16:26;23.70;43.70
45044;DHT22;30784;48.490;9.688;2023-07-09T03:18:52;23.70;43.70
45044;DHT22;30784;48.490;9.688;2023-07-09T03:21:17;23.60;43.80
45044;DHT22;30784;48.490;9.688;2023-07-09T03:23:43;23.60;43.90
45044;DHT22;30784;48.490;9.688;2023-07-09T03:26:08;23.60;43.90
45044;DHT22;30784;48.490;9.688;2023-07-09T03:28:34;23.50;43.80
45044;DHT22;30784;48.490;9.688;2023-07-09T03:31:00;23.50;43.90
45044;DHT22;30784;48.490;9.688;2023-07-09T03:33:25;23.50;44.10
45044;DHT22;30784;48.490;9.688;2023-07-09T03:35:51;23.50;44.00
45044;DHT22;30784;48.490;9.688;2023-07-09T03:38:17;23.50;44.10
45044;DHT22;30784;48.490;9.688;2023-07-09T03:40:43;23.50;44.10
45044;DHT22;30784;48.490;9.688;2023-07-09T03:43:10;23.50;44.10
45044;DHT22;30784;48.490;9.688;2023-07-09T03:45:36;23.50;44.20
45044;DHT22;30784;48.490;9.688;2023-07-09T03:48:03;23.50;44.20
45044;DHT22;30784;48.490;9.688;2023-07-09T03:50:28;23.50;44.20
45044;DHT22;30784;48.490;9.688;2023-07-09T03:52:54;23.50;44.30
45044;DHT22;30784;48.490;9.688;2023-07-09T03:55:20;23.40;44.30
45044;DHT22;30784;48.490;9.688;2023-07-09T03:57:46;23.40;44.40
45044;DHT22;30784;48.490;9.688;2023-07-09T04:00:12;23.40;44.20
45044;DHT22;30784;48.490;9.688;2023-07-09T04:02:39;23.40;44.30
45044;DHT22;30784;48.490;9.688;2023-07-09T04:05:06;23.40;44.40
45044;DHT22;30784;48.490;9.688;2023-07-09T04:07:31;23.40;44.40
45044;DHT22;30784;48.490;9.688;2023-07-09T04:09:57;23.40;44.50
45044;DHT22;30784;48.490;9.688;2023-07-09T04:12:23;23.40;44.50
45044;DHT22;30784;48.490;9.688;2023-07-09T04:14:48;23.40;44.50
45044;DHT22;30784;48.490;9.688;2023-07-09T04:17:14;23.40;44.60
45044;DHT22;30784;48.490;9.688;2023-07-09T04:19:39;23.50;44.60
45044;DHT22;30784;48.490;9.688;2023-07-09T04:22:05;23.40;44.50
45044;DHT22;30784;48.490;9.688;2023-07-09T04:24:31;23.50;44.70
45044;DHT22;30784;48.490;9.688;2023-07-09T04:26:57;23.50;44.80
45044;DHT22;30784;48.490;9.688;2023-07-09T04:29:23;23.50;44.70
45044;DHT22;30784;48.490;9.688;2023-07-09T04:31:49;23.50;44.70
45044;DHT22;30784;48.490;9.688;2023-07-09T04:34:14;23.50;44.80
45044;DHT22;30784;48.490;9.688;2023-07-09T04:36:40;23.50;44.70
45044;DHT22;30784;48.490;9.688;2023-07-09T04:39:06;23.60;44.80
45044;DHT22;30784;48.490;9.688;2023-07-09T04:41:31;23.60;44.90
45044;DHT22;30784;48.490;9.688;2023-07-09T04:43:57;23.60;44.80
45044;DHT22;30784;48.490;9.688;2023-07-09T04:46:22;23.70;45.00
45044;DHT22;30784;48.490;9.688;2023-07-09T04:48:48;23.70;45.00
45044;DHT22;30784;48.490;9.688;2023-07-09T04:51:13;23.70;45.00
45044;DHT22;30784;48.490;9.688;2023-07-09T04:53:39;23.70;45.10
45044;DHT22;30784;48.490;9.688;2023-07-09T04:56:05;23.80;45.10
45044;DHT22;30784;48.490;9.688;2023-07-09T04:58:31;23.80;45.10
45044;DHT22;30784;48.490;9.688;2023-07-09T05:00:58;23.90;45.20
45044;DHT22;30784;48.490;9.688;2023-07-09T05:03:23;24.00;45.60
45044;DHT22;30784;48.490;9.688;2023-07-09T05:05:49;24.00;45.50
45044;DHT22;30784;48.490;9.688;2023-07-09T05:08:15;24.10;45.40
45044;DHT22;30784;48.490;9.688;2023-07-09T05:10:46;24.10;45.40
45044;DHT22;30784;48.490;9.688;2023-07-09T05:13:12;24.20;45.40
45044;DHT22;30784;48.490;9.688;2023-07-09T05:15:46;24.20;45.50
45044;DHT22;30784;48.490;9.688;2023-07-09T05:18:13;24.30;45.50
45044;DHT22;30784;48.490;9.688;2023-07-09T05:20:39;24.30;45.60
45044;DHT22;30784;48.490;9.688;2023-07-09T05:23:05;24.40;45.60
45044;DHT22;30784;48.490;9.688;2023-07-09T05:25:31;24.40;45.70
45044;DHT22;30784;48.490;9.688;2023-07-09T05:27:56;24.50;45.80
45044;DHT22;30784;48.490;9.688;2023-07-09T05:30:23;24.60;45.90
45044;DHT22;30784;48.490;9.688;2023-07-09T05:32:48;24.60;45.90
45044;DHT22;30784;48.490;9.688;2023-07-09T05:35:14;24.70;46.00
45044;DHT22;30784;48.490;9.688;2023-07-09T05:37:40;24.80;46.10
45044;DHT22;30784;48.490;9.688;2023-07-09T05:40:07;24.80;46.10
45044;DHT22;30784;48.490;9.688;2023-07-09T05:42:33;24.90;46.00
45044;DHT22;30784;48.490;9.688;2023-07-09T05:48:20;25.10;45.80
45044;DHT22;30784;48.490;9.688;2023-07-09T05:50:52;25.10;46.00
45044;DHT22;30784;48.490;9.688;2023-07-09T05:53:18;25.20;46.50
45044;DHT22;30784;48.490;9.688;2023-07-09T05:55:44;25.30;46.60
45044;DHT22;30784;48.490;9.688;2023-07-09T05:58:09;25.40;46.60
45044;DHT22;30784;48.490;9.688;2023-07-09T06:00:35;25.50;46.70
45044;DHT22;30784;48.490;9.688;2023-07-09T06:03:03;25.60;46.60
45044;DHT22;30784;48.490;9.688;2023-07-09T06:05:35;25.70;46.70
45044;DHT22;30784;48.490;9.688;2023-07-09T06:08:01;25.90;46.50
45044;DHT22;30784;48.490;9.688;2023-07-09T06:10:27;26.10;46.20
45044;DHT22;30784;48.490;9.688;2023-07-09T06:12:52;26.30;45.50
45044;DHT22;30784;48.490;9.688;2023-07-09T06:15:18;26.50;45.20
45044;DHT22;30784;48.490;9.688;2023-07-09T06:17:43;26.60;43.40
45044;DHT22;30784;48.490;9.688;2023-07-09T06:20:09;26.90;42.80
45044;DHT22;30784;48.490;9.688;2023-07-09T06:22:35;27.10;42.80
45044;DHT22;30784;48.490;9.688;2023-07-09T06:25:00;27.20;42.40
45044;DHT22;30784;48.490;9.688;2023-07-09T06:27:26;27.50;42.20
45044;DHT22;30784;48.490;9.688;2023-07-09T06:29:52;27.70;42.10
45044;DHT22;30784;48.490;9.688;2023-07-09T06:32:17;27.90;41.80
45044;DHT22;30784;48.490;9.688;2023-07-09T06:34:43;28.10;41.20
45044;DHT22;30784;48.490;9.688;2023-07-09T06:37:09;28.30;40.80
45044;DHT22;30784;48.490;9.688;2023-07-09T06:39:34;28.40;40.40
45044;DHT22;30784;48.490;9.688;2023-07-09T06:42:00;28.60;40.50
45044;DHT22;30784;48.490;9.688;2023-07-09T06:44:26;28.80;40.00
45044;DHT22;30784;48.490;9.688;2023-07-09T06:46:51;29.00;39.50
45044;DHT22;30784;48.490;9.688;2023-07-09T06:49:17;29.10;39.70
45044;DHT22;30784;48.490;9.688;2023-07-09T06:51:42;29.30;38.80
45044;DHT22;30784;48.490;9.688;2023-07-09T06:54:08;29.40;38.50
45044;DHT22;30784;48.490;9.688;2023-07-09T06:56:34;29.50;38.80
45044;DHT22;30784;48.490;9.688;2023-07-09T06:59:00;29.60;38.80
45044;DHT22;30784;48.490;9.688;2023-07-09T07:01:25;29.80;38.40
45044;DHT22;30784;48.490;9.688;2023-07-09T07:03:51;29.90;38.40
45044;DHT22;30784;48.490;9.688;2023-07-09T07:06:16;29.90;38.30
45044;DHT22;30784;48.490;9.688;2023-07-09T07:08:42;30.10;38.20
45044;DHT22;30784;48.490;9.688;2023-07-09T07:11:08;30.20;38.10
45044;DHT22;30784;48.490;9.688;2023-07-09T07:13:35;30.20;37.80
45044;DHT22;30784;48.490;9.688;2023-07-09T07:16:06;30.30;38.00
45044;DHT22;30784;48.490;9.688;2023-07-09T07:18:31;30.30;37.50
45044;DHT22;30784;48.490;9.688;2023-07-09T07:20:57;30.30;36.50
45044;DHT22;30784;48.490;9.688;2023-07-09T07:23:23;30.30;36.60
45044;DHT22;30784;48.490;9.688;2023-07-09T07:25:49;30.30;36.50
45044;DHT22;30784;48.490;9.688;2023-07-09T07:28:16;30.30;36.40
45044;DHT22;30784;48.490;9.688;2023-07-09T07:30:42;30.30;35.80
45044;DHT22;30784;48.490;9.688;2023-07-09T07:33:08;30.30;35.80
45044;DHT22;30784;48.490;9.688;2023-07-09T07:38:55;30.30;35.80
45044;DHT22;30784;48.490;9.688;2023-07-09T07:41:21;30.30;34.50
45044;DHT22;30784;48.490;9.688;2023-07-09T07:43:46;30.30;34.80
45044;DHT22;30784;48.490;9.688;2023-07-09T07:46:12;30.30;34.10
45044;DHT22;30784;48.490;9.688;2023-07-09T07:48:37;30.30;33.90
45044;DHT22;30784;48.490;9.688;2023-07-09T07:51:03;30.30;33.70
45044;DHT22;30784;48.490;9.688;2023-07-09T07:53:30;30.30;33.80
45044;DHT22;30784;48.490;9.688;2023-07-09T07:55:57;30.30;33.90
45044;DHT22;30784;48.490;9.688;2023-07-09T07:58:23;30.30;33.80
45044;DHT22;30784;48.490;9.688;2023-07-09T08:00:48;30.30;33.80
45044;DHT22;30784;48.490;9.688;2023-07-09T08:03:14;30.40;33.80
45044;DHT22;30784;48.490;9.688;2023-07-09T08:05:39;30.40;33.30
45044;DHT22;30784;48.490;9.688;2023-07-09T08:08:05;30.50;33.30
45044;DHT22;30784;48.490;9.688;2023-07-09T08:10:31;30.50;33.30
45044;DHT22;30784;48.490;9.688;2023-07-09T08:12:56;30.50;32.70
45044;DHT22;30784;48.490;9.688;2023-07-09T08:18:44;30.60;33.50
45044;DHT22;30784;48.490;9.688;2023-07-09T08:21:09;30.70;32.70
45044;DHT22;30784;48.490;9.688;2023-07-09T08:23:35;30.70;32.10
45044;DHT22;30784;48.490;9.688;2023-07-09T08:26:02;30.70;32.30
45044;DHT22;30784;48.490;9.688;2023-07-09T08:28:29;30.80;32.40
45044;DHT22;30784;48.490;9.688;2023-07-09T08:30:55;30.80;32.30
45044;DHT22;30784;48.490;9.688;2023-07-09T08:33:22;30.80;32.20
45044;DHT22;30784;48.490;9.688;2023-07-09T08:35:52;30.90;32.00
45044;DHT22;30784;48.490;9.688;2023-07-09T08:38:18;30.90;32.00
45044;DHT22;30784;48.490;9.688;2023-07-09T08:49:21;31.20;31.60
45044;DHT22;30784;48.490;9.688;2023-07-09T08:51:49;31.30;31.50
45044;DHT22;30784;48.490;9.688;2023-07-09T08:54:26;31.40;31.40
45044;DHT22;30784;48.490;9.688;2023-07-09T08:56:54;31.50;31.60
45044;DHT22;30784;48.490;9.688;2023-07-09T08:59:20;31.60;31.20
45044;DHT22;30784;48.490;9.688;2023-07-09T09:01:51;31.70;30.90
45044;DHT22;30784;48.490;9.688;2023-07-09T09:04:31;31.80;31.20
45044;DHT22;30784;48.490;9.688;2023-07-09T09:07:28;31.90;31.20
45044;DHT22;30784;48.490;9.688;2023-07-09T09:09:58;32.00;30.30
45044;DHT22;30784;48.490;9.688;2023-07-09T09:15:20;32.10;29.90
45044;DHT22;30784;48.490;9.688;2023-07-09T09:17:50;32.20;30.10
45044;DHT22;30784;48.490;9.688;2023-07-09T09:20:19;32.30;30.10
45044;DHT22;30784;48.490;9.688;2023-07-09T09:25:39;32.60;30.00
45044;DHT22;30784;48.490;9.688;2023-07-09T09:28:05;32.70;29.90
45044;DHT22;30784;48.490;9.688;2023-07-09T09:30:31;32.90;29.50
45044;DHT22;30784;48.490;9.688;2023-07-09T09:33:17;33.00;29.30
45044;DHT22;30784;48.490;9.688;2023-07-09T09:35:43;33.20;29.10
45044;DHT22;30784;48.490;9.688;2023-07-09T09:38:17;33.30;29.40
45044;DHT22;30784;48.490;9.688;2023-07-09T09:40:43;33.50;29.30
45044;DHT22;30784;48.490;9.688;2023-07-09T09:43:17;33.70;29.10
45044;DHT22;30784;48.490;9.688;2023-07-09T09:45:46;33.80;29.10
45044;DHT22;30784;48.490;9.688;2023-07-09T09:48:19;33.80;28.90
45044;DHT22;30784;48.490;9.688;2023-07-09T09:50:46;34.00;28.70
45044;DHT22;30784;48.490;9.688;2023-07-09T09:53:21;34.00;28.70
45044;DHT22;30784;48.490;9.688;2023-07-09T09:55:48;34.00;28.60
45044;DHT22;30784;48.490;9.688;2023-07-09T09:58:16;34.10;28.60
45044;DHT22;30784;48.490;9.688;2023-07-09T10:00:48;34.30;28.50
45044;DHT22;30784;48.490;9.688;2023-07-09T10:03:14;34.50;28.40
45044;DHT22;30784;48.490;9.688;2023-07-09T10:05:44;34.50;28.30
45044;DHT22;30784;48.490;9.688;2023-07-09T10:11:21;34.80;28.00
45044;DHT22;30784;48.490;9.688;2023-07-09T10:13:49;34.90;27.70
45044;DHT22;30784;48.490;9.688;2023-07-09T10:16:27;35.00;27.20
45044;DHT22;30784;48.490;9.688;2023-07-09T10:19:01;35.00;27.30
45044;DHT22;30784;48.490;9.688;2023-07-09T10:21:41;35.10;27.20
45044;DHT22;30784;48.490;9.688;2023-07-09T10:24:37;35.20;27.10
45044;DHT22;30784;48.490;9.688;2023-07-09T10:27:16;35.30;27.40
45044;DHT22;30784;48.490;9.688;2023-07-09T10:30:03;35.50;27.20
45044;DHT22;30784;48.490;9.688;2023-07-09T10:33:09;35.70;26.90
45044;DHT22;30784;48.490;9.688;2023-07-09T10:35:44;35.80;26.80
45044;DHT22;30784;48.490;9.688;2023-07-09T10:41:09;35.80;26.30
45044;DHT22;30784;48.490;9.688;2023-07-09T10:43:57;35.90;26.20
45044;DHT22;30784;48.490;9.688;2023-07-09T10:46:26;36.00;26.20
45044;DHT22;30784;48.490;9.688;2023-07-09T10:48:53;36.00;26.10
45044;DHT22;30784;48.490;9.688;2023-07-09T10:51:52;36.10;26.40
45044;DHT22;30784;48.490;9.688;2023-07-09T10:54:24;36.20;26.30
45044;DHT22;30784;48.490;9.688;2023-07-09T10:57:00;36.30;26.20
45044;DHT22;30784;48.490;9.688;2023-07-09T10:59:35;36.30;26.20
45044;DHT22;30784;48.490;9.688;2023-07-09T11:02:15;36.40;26.40
45044;DHT22;30784;48.490;9.688;2023-07-09T11:07:17;36.40;26.30
45044;DHT22;30784;48.490;9.688;2023-07-09T11:09:46;36.40;26.10
45044;DHT22;30784;48.490;9.688;2023-07-09T11:12:17;36.40;26.10
45044;DHT22;30784;48.490;9.688;2023-07-09T11:17:18;36.40;26.00
45044;DHT22;30784;48.490;9.688;2023-07-09T11:19:53;36.50;26.00
45044;DHT22;30784;48.490;9.688;2023-07-09T11:22:41;36.60;25.90
45044;DHT22;30784;48.490;9.688;2023-07-09T11:25:12;36.50;25.80
45044;DHT22;30784;48.490;9.688;2023-07-09T11:27:53;36.60;25.90
45044;DHT22;30784;48.490;9.688;2023-07-09T11:30:27;36.60;25.70
45044;DHT22;30784;48.490;9.688;2023-07-09T11:32:58;36.60;25.30
45044;DHT22;30784;48.490;9.688;2023-07-09T11:35:28;36.60;25.40
45044;DHT22;30784;48.490;9.688;2023-07-09T11:37:55;36.60;25.40
45044;DHT22;30784;48.490;9.688;2023-07-09T11:40:22;36.60;25.40
45044;DHT22;30784;48.490;9.688;2023-07-09T11:45:24;36.60;25.40
45044;DHT22;30784;48.490;9.688;2023-07-09T11:48:15;36.60;25.40
45044;DHT22;30784;48.490;9.688;2023-07-09T11:50:50;36.60;25.40
45044;DHT22;30784;48.490;9.688;2023-07-09T11:55:53;36.60;25.30
45044;DHT22;30784;48.490;9.688;2023-07-09T11:58:19;36.50;25.20
45044;DHT22;30784;48.490;9.688;2023-07-09T12:00:58;36.50;25.10
45044;DHT22;30784;48.490;9.688;2023-07-09T12:03:38;36.50;25.10
45044;DHT22;30784;48.490;9.688;2023-07-09T12:06:13;36.50;25.00
45044;DHT22;30784;48.490;9.688;2023-07-09T12:08:42;36.40;24.90
45044;DHT22;30784;48.490;9.688;2023-07-09T12:11:29;36.40;24.80
45044;DHT22;30784;48.490;9.688;2023-07-09T12:14:01;36.30;25.00
45044;DHT22;30784;48.490;9.688;2023-07-09T12:16:29;36.20;24.80
45044;DHT22;30784;48.490;9.688;2023-07-09T12:18:58;36.00;24.90
45044;DHT22;30784;48.490;9.688;2023-07-09T12:21:24;35.90;24.70
45044;DHT22;30784;48.490;9.688;2023-07-09T12:23:50;35.80;24.70
45044;DHT22;30784;48.490;9.688;2023-07-09T12:26:18;35.70;24.80
45044;DHT22;30784;48.490;9.688;2023-07-09T12:28:53;35.60;24.80
45044;DHT22;30784;48.490;9.688;2023-07-09T12:31:24;35.50;24.70
45044;DHT22;30784;48.490;9.688;2023-07-09T12:33:53;35.50;24.50
45044;DHT22;30784;48.490;9.688;2023-07-09T12:36:19;35.30;24.60
45044;DHT22;30784;48.490;9.688;2023-07-09T12:38:48;35.20;24.70
45044;DHT22;30784;48.490;9.688;2023-07-09T12:41:38;35.10;24.70
45044;DHT22;30784;48.490;9.688;2023-07-09T12:44:05;35.00;24.70
45044;DHT22;30784;48.490;9.688;2023-07-09T12:46:31;35.00;24.70
45044;DHT22;30784;48.490;9.688;2023-07-09T12:48:57;34.90;24.40
45044;DHT22;30784;48.490;9.688;2023-07-09T12:51:25;34.90;24.40
45044;DHT22;30784;48.490;9.688;2023-07-09T12:54:14;34.70;24.30
45044;DHT22;30784;48.490;9.688;2023-07-09T12:56:40;34.70;24.50
45044;DHT22;30784;48.490;9.688;2023-07-09T12:59:26;34.60;24.80
45044;DHT22;30784;48.490;9.688;2023-07-09T13:04:20;34.60;24.50
45044;DHT22;30784;48.490;9.688;2023-07-09T13:06:47;34.60;24.70
45044;DHT22;30784;48.490;9.688;2023-07-09T13:09:20;34.60;24.40
45044;DHT22;30784;48.490;9.688;2023-07-09T13:11:47;34.60;24.30
45044;DHT22;30784;48.490;9.688;2023-07-09T13:14:25;34.50;24.30
45044;DHT22;30784;48.490;9.688;2023-07-09T13:16:50;34.50;24.40
45044;DHT22;30784;48.490;9.688;2023-07-09T13:19:17;34.50;24.40
45044;DHT22;30784;48.490;9.688;2023-07-09T13:21:43;34.40;24.30
45044;DHT22;30784;48.490;9.688;2023-07-09T13:24:22;34.40;24.30
45044;DHT22;30784;48.490;9.688;2023-07-09T13:26:48;34.40;24.10
45044;DHT22;30784;48.490;9.688;2023-07-09T13:29:15;34.40;24.20
45044;DHT22;30784;48.490;9.688;2023-07-09T13:31:45;34.40;24.10
45044;DHT22;30784;48.490;9.688;2023-07-09T13:34:24;34.40;24.10
45044;DHT22;30784;48.490;9.688;2023-07-09T13:36:51;34.30;24.00
45044;DHT22;30784;48.490;9.688;2023-07-09T13:39:19;34.20;24.00
45044;DHT22;30784;48.490;9.688;2023-07-09T13:41:46;34.20;23.90
45044;DHT22;30784;48.490;9.688;2023-07-09T13:44:14;34.20;24.00
45044;DHT22;30784;48.490;9.688;2023-07-09T13:46:40;34.10;24.00
45044;DHT22;30784;48.490;9.688;2023-07-09T13:49:13;34.10;24.10
45044;DHT22;30784;48.490;9.688;2023-07-09T13:51:41;34.10;23.80
45044;DHT22;30784;48.490;9.688;2023-07-09T13:54:31;34.10;23.90
45044;DHT22;30784;48.490;9.688;2023-07-09T13:57:01;34.10;24.00
45044;DHT22;30784;48.490;9.688;2023-07-09T13:59:28;34.10;23.90
45044;DHT22;30784;48.490;9.688;2023-07-09T14:01:55;34.10;23.80
45044;DHT22;30784;48.490;9.688;2023-07-09T14:04:22;34.10;23.80
45044;DHT22;30784;48.490;9.688;2023-07-09T14:06:47;34.10;23.90
45044;DHT22;30784;48.490;9.688;2023-07-09T14:09:14;34.10;23.70
45044;DHT22;30784;48.490;9.688;2023-07-09T14:11:51;34.00;23.70
45044;DHT22;30784;48.490;9.688;2023-07-09T14:14:23;34.00;23.70
45044;DHT22;30784;48.490;9.688;2023-07-09T14:16:50;34.00;23.80
45044;DHT22;30784;48.490;9.688;2023-07-09T14:19:19;34.00;23.80
45044;DHT22;30784;48.490;9.688;2023-07-09T14:21:46;34.00;24.00
45044;DHT22;30784;48.490;9.688;2023-07-09T14:24:26;34.00;24.00
45044;DHT22;30784;48.490;9.688;2023-07-09T14:26:54;34.00;23.90
45044;DHT22;30784;48.490;9.688;2023-07-09T14:29:21;34.00;23.90
45044;DHT22;30784;48.490;9.688;2023-07-09T14:31:47;34.00;23.90
45044;DHT22;30784;48.490;9.688;2023-07-09T14:34:24;34.00;23.90
45044;DHT22;30784;48.490;9.688;2023-07-09T14:36:54;34.00;23.80
45044;DHT22;30784;48.490;9.688;2023-07-09T14:39:21;34.10;23.90
45044;DHT22;30784;48.490;9.688;2023-07-09T14:41:47;34.10;23.60
45044;DHT22;30784;48.490;9.688;2023-07-09T14:44:26;34.10;23.50
45044;DHT22;30784;48.490;9.688;2023-07-09T14:46:53;34.10;23.50
45044;DHT22;30784;48.490;9.688;2023-07-09T14:49:20;34.10;23.50
45044;DHT22;30784;48.490;9.688;2023-07-09T14:51:47;34.10;23.40
45044;DHT22;30784;48.490;9.688;2023-07-09T14:54:23;34.10;23.30
45044;DHT22;30784;48.490;9.688;2023-07-09T14:56:49;34.10;23.60
45044;DHT22;30784;48.490;9.688;2023-07-09T14:59:15;34.10;23.50
45044;DHT22;30784;48.490;9.688;2023-07-09T15:01:41;34.10;23.60
45044;DHT22;30784;48.490;9.688;2023-07-09T15:04:27;34.10;23.50
45044;DHT22;30784;48.490;9.688;2023-07-09T15:06:54;34.20;23.50
45044;DHT22;30784;48.490;9.688;2023-07-09T15:09:25;34.30;23.40
45044;DHT22;30784;48.490;9.688;2023-07-09T15:11:54;34.30;23.50
45044;DHT22;30784;48.490;9.688;2023-07-09T15:14:20;34.30;23.60
45044;DHT22;30784;48.490;9.688;2023-07-09T15:16:47;34.40;23.60
45044;DHT22;30784;48.490;9.688;2023-07-09T15:19:15;34.40;23.50
45044;DHT22;30784;48.490;9.688;2023-07-09T15:21:41;34.50;23.70
45044;DHT22;30784;48.490;9.688;2023-07-09T15:24:27;34.50;23.50
45044;DHT22;30784;48.490;9.688;2023-07-09T15:26:54;34.60;23.70
45044;DHT22;30784;48.490;9.688;2023-07-09T15:29:20;34.60;23.90
45044;DHT22;30784;48.490;9.688;2023-07-09T15:31:46;34.60;24.10
45044;DHT22;30784;48.490;9.688;2023-07-09T15:34:12;34.60;24.10
45044;DHT22;30784;48.490;9.688;2023-07-09T15:36:44;34.50;23.80
45044;DHT22;30784;48.490;9.688;2023-07-09T15:39:11;34.50;23.80
45044;DHT22;30784;48.490;9.688;2023-07-09T15:41:38;34.50;23.70
45044;DHT22;30784;48.490;9.688;2023-07-09T15:44:04;34.40;23.90
45044;DHT22;30784;48.490;9.688;2023-07-09T15:46:29;34.40;24.10
45044;DHT22;30784;48.490;9.688;2023-07-09T15:48:56;34.30;24.00
45044;DHT22;30784;48.490;9.688;2023-07-09T15:51:21;34.30;24.20
45044;DHT22;30784;48.490;9.688;2023-07-09T15:53:47;34.30;24.30
45044;DHT22;30784;48.490;9.688;2023-07-09T15:58:44;34.40;24.50
45044;DHT22;30784;48.490;9.688;2023-07-09T16:01:13;34.30;24.70
45044;DHT22;30784;48.490;9.688;2023-07-09T16:03:46;34.30;24.70
45044;DHT22;30784;48.490;9.688;2023-07-09T16:06:11;34.30;24.70
45044;DHT22;30784;48.490;9.688;2023-07-09T16:08:37;34.30;24.60
45044;DHT22;30784;48.490;9.688;2023-07-09T16:11:15;34.30;24.50
45044;DHT22;30784;48.490;9.688;2023-07-09T16:13:40;34.30;24.50
45044;DHT22;30784;48.490;9.688;2023-07-09T16:16:12;34.30;24.50
45044;DHT22;30784;48.490;9.688;2023-07-09T16:18:38;34.40;24.80
45044;DHT22;30784;48.490;9.688;2023-07-09T16:21:04;34.40;24.90
45044;DHT22;30784;48.490;9.688;2023-07-09T16:23:29;34.40;25.00
45044;DHT22;30784;48.490;9.688;2023-07-09T16:25:55;34.30;25.00
45044;DHT22;30784;48.490;9.688;2023-07-09T16:28:20;34.30;25.10